Time;durP1;ratioP1;P1;durP2;ratioP2;P2;SDS_P1;SDS_P2;PMS_P1;PMS_P2;Temp;Humidity;BMP_temperature;BMP_pressure;BME280_temperature;BME280_humidity;BME280_pressure;Samples;Min_cycle;Max_cycle;Signal;HPM_P1;HPM_P2
2022/05/12 00:00:14;;;;;;;337.83;158.57;;;;;;;17.39;65.88;100012.75;338305;29;1252;-78
2022/05/12 00:00:26;;;;;;;339.27;155.02;;;;;;;17.37;65.89;100007.56;339646;29;1549;-78
2022/05/12 00:00:37;;;;;;;341.65;154.38;;;;;;;17.37;65.85;100018.16;338344;29;850;-78
2022/05/12 00:00:47;;;;;;;341.70;156.15;;;;;;;17.34;66.02;100007.75;339574;29;1248;-78
2022/05/12 00:00:58;;;;;;;342.87;159.40;;;;;;;17.36;66.15;100011.16;339636;29;1125;-78
2022/05/12 00:01:08;;;;;;;341.00;159.00;;;;;;;17.37;66.05;100018.16;335732;29;1198;-78
2022/05/12 00:01:19;;;;;;;340.83;159.63;;;;;;;17.38;65.99;100014.56;338322;29;791;-78
2022/05/12 00:01:29;;;;;;;342.20;160.50;;;;;;;17.36;66.28;100020.88;336997;29;1209;-78
2022/05/12 00:01:39;;;;;;;346.23;162.48;;;;;;;17.39;66.23;100020.69;335930;29;1317;-78
2022/05/12 00:01:50;;;;;;;346.17;161.53;;;;;;;17.37;65.57;100015.50;338169;29;1202;-77
2022/05/12 00:02:01;;;;;;;345.67;160.93;;;;;;;17.38;66.25;100016.34;336695;29;1568;-77
2022/05/12 00:02:12;;;;;;;341.17;160.65;;;;;;;17.39;65.79;100018.03;336937;29;1329;-77
2022/05/12 00:02:22;;;;;;;338.83;159.63;;;;;;;17.38;65.82;100019.84;338219;29;1296;-77
2022/05/12 00:02:33;;;;;;;339.90;158.67;;;;;;;17.37;65.67;100015.50;336355;29;1432;-77
2022/05/12 00:02:43;;;;;;;340.50;155.97;;;;;;;17.37;65.78;100018.16;339648;29;692;-77
2022/05/12 00:02:54;;;;;;;342.00;156.75;;;;;;;17.35;65.83;100013.88;338304;29;1366;-77
2022/05/12 00:03:05;;;;;;;341.00;157.00;;;;;;;17.35;65.86;100020.03;337001;29;1316;-77
2022/05/12 00:03:17;;;;;;;343.15;159.98;;;;;;;17.36;65.73;100013.78;338349;29;901;-77
2022/05/12 00:03:27;;;;;;;342.55;160.07;;;;;;;17.36;65.92;100013.78;335860;29;874;-77
2022/05/12 00:03:38;;;;;;;343.43;162.13;;;;;;;17.35;66.31;100014.75;338984;29;1193;-77
2022/05/12 00:03:48;;;;;;;340.73;161.00;;;;;;;17.33;66.17;100011.34;335735;29;1131;-77
2022/05/12 00:03:58;;;;;;;340.23;161.67;;;;;;;17.33;66.04;100015.81;338358;29;898;-77
2022/05/12 00:04:09;;;;;;;339.40;160.10;;;;;;;17.31;66.25;100015.06;338374;29;1206;-77
2022/05/12 00:04:19;;;;;;;342.50;160.83;;;;;;;17.33;66.18;100021.09;338115;29;3953;-77
2022/05/12 00:04:30;;;;;;;345.67;161.23;;;;;;;17.29;66.54;100005.41;337805;29;3246;-77
2022/05/12 00:04:41;;;;;;;348.40;163.80;;;;;;;17.30;66.15;100016.84;335776;29;1226;-77
2022/05/12 00:04:51;;;;;;;342.85;159.07;;;;;;;17.31;66.26;100015.91;334176;29;3047;-77
2022/05/12 00:05:02;;;;;;;339.77;159.20;;;;;;;17.30;66.60;100011.56;337117;29;1203;-77
2022/05/12 00:05:13;;;;;;;334.27;155.77;;;;;;;17.31;66.27;100018.56;338274;29;1376;-77
2022/05/12 00:05:23;;;;;;;335.57;158.07;;;;;;;17.29;66.47;100016.00;339472;29;1357;-77
2022/05/12 00:05:34;;;;;;;336.33;156.15;;;;;;;17.30;66.60;100016.84;338316;29;1163;-77
2022/05/12 00:05:45;;;;;;;337.38;154.95;;;;;;;17.30;66.18;100011.56;336821;29;1277;-77
2022/05/12 00:05:55;;;;;;;340.80;156.37;;;;;;;17.29;66.55;100009.84;336979;29;1336;-77
2022/05/12 00:06:05;;;;;;;341.33;157.77;;;;;;;17.29;66.34;100015.16;339357;29;1449;-77
2022/05/12 00:06:16;;;;;;;344.57;161.57;;;;;;;17.31;66.38;100017.72;339658;29;1199;-77
2022/05/12 00:06:26;;;;;;;341.20;158.73;;;;;;;17.30;66.16;100011.56;337146;29;858;-77
2022/05/12 00:06:37;;;;;;;343.10;159.83;;;;;;;17.30;66.22;100014.22;335696;29;893;-77
2022/05/12 00:06:47;;;;;;;345.30;160.40;;;;;;;17.30;66.26;100011.56;339631;29;1585;-77
2022/05/12 00:06:58;;;;;;;349.88;163.30;;;;;;;17.29;66.96;100018.66;339139;29;1567;-77
2022/05/12 00:07:09;;;;;;;347.33;162.43;;;;;;;17.30;66.23;100016.84;335556;29;1514;-77
2022/05/12 00:07:19;;;;;;;346.80;162.70;;;;;;;17.30;66.29;100016.84;336988;29;1589;-77
2022/05/12 00:07:30;;;;;;;342.43;161.77;;;;;;;17.31;66.49;100012.41;340453;29;1251;-77
2022/05/12 00:07:43;;;;;;;341.83;162.50;;;;;;;17.31;66.61;100018.56;339492;29;1415;-77
2022/05/12 00:07:54;;;;;;;341.10;160.23;;;;;;;17.30;66.56;100016.84;336346;29;961;-77
2022/05/12 00:08:04;;;;;;;339.80;158.37;;;;;;;17.28;66.28;100010.81;336992;29;787;-77
2022/05/12 00:08:15;;;;;;;340.48;156.95;;;;;;;17.30;66.50;100016.84;338267;29;1533;-78
2022/05/12 00:08:25;;;;;;;342.37;157.77;;;;;;;17.31;66.43;100015.06;338154;29;1483;-78
2022/05/12 00:08:36;;;;;;;342.47;157.90;;;;;;;17.31;66.43;100015.91;338123;29;1590;-78
2022/05/12 00:08:46;;;;;;;342.77;159.20;;;;;;;17.29;66.56;100004.56;338939;29;1463;-78
2022/05/12 00:08:57;;;;;;;340.07;158.30;;;;;;;17.28;66.45;100008.16;337115;29;1369;-78
2022/05/12 00:09:07;;;;;;;343.45;159.45;;;;;;;17.27;66.69;100012.59;338161;29;1195;-78
2022/05/12 00:09:17;;;;;;;344.43;157.60;;;;;;;17.27;66.69;100009.97;338203;29;1254;-78
2022/05/12 00:09:28;;;;;;;344.90;158.10;;;;;;;17.29;66.49;100015.16;337841;29;1421;-78
2022/05/12 00:09:38;;;;;;;343.93;160.00;;;;;;;17.27;66.47;100009.09;338125;29;1913;-78
2022/05/12 00:09:49;;;;;;;345.85;163.52;;;;;;;17.25;66.55;100013.63;338215;29;1381;-78
2022/05/12 00:09:59;;;;;;;347.70;165.10;;;;;;;17.20;66.53;100003.34;334534;29;1197;-78
2022/05/12 00:10:11;;;;;;;346.30;162.35;;;;;;;17.22;66.55;99998.81;338440;29;839;-78
2022/05/12 00:10:23;;;;;;;341.70;154.90;;;;;;;17.29;66.51;100009.84;337088;29;847;-78
2022/05/12 00:10:34;;;;;;;341.27;152.25;;;;;;;17.30;66.31;100011.56;338145;29;1424;-78
2022/05/12 00:10:44;;;;;;;341.93;154.80;;;;;;;17.29;66.63;100009.84;337028;29;1603;-78
2022/05/12 00:10:55;;;;;;;344.20;158.32;;;;;;;17.31;66.38;100007.13;335594;29;1234;-78
2022/05/12 00:11:05;;;;;;;345.00;160.17;;;;;;;17.29;66.36;100020.44;340921;29;1245;-78
2022/05/12 00:11:15;;;;;;;345.48;160.35;;;;;;;17.27;66.52;100011.75;340829;29;1308;-78
2022/05/12 00:11:26;;;;;;;346.77;161.13;;;;;;;17.27;66.46;100011.75;336925;29;1233;-78
2022/05/12 00:11:36;;;;;;;345.83;161.15;;;;;;;17.26;66.41;100004.75;337045;29;1619;-78
2022/05/12 00:11:47;;;;;;;346.73;162.77;;;;;;;17.23;66.80;100004.94;342320;28;866;-78
2022/05/12 00:11:57;;;;;;;346.05;161.35;;;;;;;17.23;66.67;100010.25;338572;29;1593;-78
2022/05/12 00:12:08;;;;;;;346.70;161.43;;;;;;;17.23;66.82;100010.25;337200;29;1416;-78
2022/05/12 00:12:18;;;;;;;346.08;161.77;;;;;;;17.20;66.44;99999.84;337435;29;1302;-78
2022/05/12 00:12:29;;;;;;;347.57;163.50;;;;;;;17.24;66.63;100002.22;335618;29;1237;-78
2022/05/12 00:12:39;;;;;;;347.90;163.10;;;;;;;17.22;66.74;100003.25;337211;29;1215;-78
2022/05/12 00:12:50;;;;;;;348.63;161.87;;;;;;;17.24;66.94;100001.34;338400;29;858;-78
2022/05/12 00:13:00;;;;;;;348.77;161.75;;;;;;;17.22;66.79;100003.25;336965;29;1388;-78
2022/05/12 00:13:11;;;;;;;348.70;160.95;;;;;;;17.21;66.91;100002.41;339148;29;1249;-78
2022/05/12 00:13:21;;;;;;;348.47;162.30;;;;;;;17.24;66.73;100006.66;339595;29;793;-78
2022/05/12 00:13:32;;;;;;;345.35;159.38;;;;;;;17.23;66.54;100004.94;336217;29;3054;-78
2022/05/12 00:13:42;;;;;;;343.97;159.17;;;;;;;17.20;66.97;100006.00;336331;29;3239;-78
2022/05/12 00:13:52;;;;;;;349.33;162.97;;;;;;;17.23;66.94;100008.44;338263;29;996;-78
2022/05/12 00:14:03;;;;;;;350.20;163.25;;;;;;;17.22;66.85;100008.53;337806;29;3087;-78
2022/05/12 00:14:13;;;;;;;354.57;164.37;;;;;;;17.25;66.58;100013.63;336871;29;1174;-78
2022/05/12 00:14:24;;;;;;;350.67;161.68;;;;;;;17.25;66.62;100008.34;337103;29;799;-78
2022/05/12 00:14:34;;;;;;;350.17;163.13;;;;;;;17.25;66.69;100009.19;335767;29;1340;-78
2022/05/12 00:14:45;;;;;;;346.90;162.00;;;;;;;17.24;67.07;100009.28;335806;29;894;-78
2022/05/12 00:14:55;;;;;;;345.97;161.20;;;;;;;17.25;66.52;100008.34;335818;29;1215;-78
2022/05/12 00:15:08;;;;;;;347.02;161.00;;;;;;;17.24;66.84;100006.66;338229;29;1453;-78
2022/05/12 00:15:21;;;;;;;345.33;159.35;;;;;;;17.23;66.60;99997.00;338147;29;1488;-78
2022/05/12 00:15:33;;;;;;;344.10;158.23;;;;;;;17.23;66.63;100004.94;337058;29;1363;-78
2022/05/12 00:15:43;;;;;;;342.35;154.55;;;;;;;17.24;66.58;100006.66;335735;29;1401;-78
2022/05/12 00:15:55;;;;;;;342.27;154.97;;;;;;;17.22;66.27;99995.31;335812;29;1211;-78
2022/05/12 00:16:05;;;;;;;344.90;157.07;;;;;;;17.25;66.74;100013.63;339585;29;1348;-78
2022/05/12 00:16:15;;;;;;;343.60;155.93;;;;;;;17.22;66.61;100003.25;336982;29;1210;-78
2022/05/12 00:16:26;;;;;;;342.67;155.63;;;;;;;17.22;66.85;100004.09;337185;29;1009;-77
2022/05/12 00:16:36;;;;;;;341.90;156.88;;;;;;;17.22;66.35;100005.91;339589;29;845;-77
2022/05/12 00:16:47;;;;;;;344.03;159.33;;;;;;;17.20;66.61;100006.00;335749;29;1435;-77
2022/05/12 00:16:57;;;;;;;342.45;156.32;;;;;;;17.21;66.46;100007.69;337278;29;1423;-77
2022/05/12 00:17:07;;;;;;;342.87;156.63;;;;;;;17.16;66.63;99998.34;336190;29;1570;-77
2022/05/12 00:17:18;;;;;;;342.95;156.05;;;;;;;17.20;66.48;100002.50;340683;29;1319;-77
2022/05/12 00:17:28;;;;;;;346.63;158.20;;;;;;;17.19;66.59;100003.44;339567;29;872;-77
2022/05/12 00:17:39;;;;;;;348.03;158.13;;;;;;;17.23;66.77;100012.88;338256;29;1273;-78
2022/05/12 00:17:49;;;;;;;348.63;159.63;;;;;;;17.20;66.29;100006.00;337165;29;1282;-78
2022/05/12 00:18:04;;;;;;;347.83;160.23;;;;;;;17.23;66.35;100005.78;339896;28;1298;-78
2022/05/12 00:18:14;;;;;;;344.05;155.00;;;;;;;17.22;66.23;100008.53;339626;29;1312;-78
2022/05/12 00:18:25;;;;;;;342.23;154.50;;;;;;;17.19;66.47;100003.44;339449;29;1397;-78
2022/05/12 00:18:35;;;;;;;343.35;155.68;;;;;;;17.19;66.40;100012.22;337139;29;1038;-78
2022/05/12 00:18:46;;;;;;;346.67;156.80;;;;;;;17.20;66.43;100007.78;339675;29;1434;-78
2022/05/12 00:18:56;;;;;;;347.13;155.53;;;;;;;17.17;66.42;100000.88;339402;29;1498;-78
2022/05/12 00:19:06;;;;;;;349.70;156.60;;;;;;;17.17;66.46;100000.88;334388;29;1206;-78
2022/05/12 00:19:17;;;;;;;347.90;156.90;;;;;;;17.19;66.60;100008.72;335681;29;1238;-78
2022/05/12 00:19:27;;;;;;;348.67;159.20;;;;;;;17.18;66.49;100009.66;339535;29;1189;-78
2022/05/12 00:19:38;;;;;;;346.02;157.10;;;;;;;17.19;66.71;100006.06;339527;29;1365;-78
2022/05/12 00:19:48;;;;;;;346.95;156.13;;;;;;;17.17;66.63;100005.31;335701;29;1274;-78
2022/05/12 00:20:00;;;;;;;347.83;158.40;;;;;;;17.18;66.55;100005.22;337093;29;1688;-78
2022/05/12 00:20:12;;;;;;;348.10;160.02;;;;;;;17.18;66.57;100012.31;340604;29;1281;-78
2022/05/12 00:20:23;;;;;;;345.35;158.05;;;;;;;17.15;66.63;100009.84;338252;29;1289;-77
2022/05/12 00:20:36;;;;;;;344.08;155.80;;;;;;;17.14;66.46;100001.06;338280;29;1304;-77
2022/05/12 00:20:46;;;;;;;343.45;155.50;;;;;;;17.17;66.21;100018.53;340866;29;1335;-77
2022/05/12 00:20:57;;;;;;;342.80;156.30;;;;;;;17.16;66.51;100009.75;339626;29;1222;-77
2022/05/12 00:21:07;;;;;;;343.85;157.73;;;;;;;17.16;66.64;100008.91;342435;28;1236;-77
2022/05/12 00:21:18;;;;;;;344.87;158.43;;;;;;;17.17;66.67;100015.91;339544;29;1335;-77
2022/05/12 00:21:28;;;;;;;347.05;157.18;;;;;;;17.17;66.62;100015.91;340642;29;1242;-77
2022/05/12 00:21:39;;;;;;;348.50;157.47;;;;;;;17.13;66.36;100009.09;335584;29;1035;-77
2022/05/12 00:21:49;;;;;;;350.42;157.43;;;;;;;17.11;66.72;100003.91;333758;29;1515;-77
2022/05/12 00:21:59;;;;;;;350.10;159.13;;;;;;;17.14;66.47;100009.00;338342;29;1528;-77
2022/05/12 00:22:10;;;;;;;346.75;157.35;;;;;;;17.18;66.73;100012.31;339489;29;1231;-77
2022/05/12 00:22:20;;;;;;;345.67;157.67;;;;;;;17.15;66.44;100007.22;335344;29;1222;-77
2022/05/12 00:22:30;;;;;;;345.10;155.97;;;;;;;17.17;66.42;100013.25;337056;29;1436;-77
2022/05/12 00:22:41;;;;;;;341.98;154.82;;;;;;;17.16;66.85;100008.91;337005;29;5464;-77
2022/05/12 00:22:52;;;;;;;340.17;155.53;;;;;;;17.14;66.85;100005.50;337209;29;3308;-77
2022/05/12 00:23:09;;;;;;;343.27;157.70;;;;;;;17.13;66.92;100009.94;337602;29;1190;-77
2022/05/12 00:23:21;;;;;;;342.55;156.85;;;;;;;17.13;66.76;100011.75;337343;29;3679;-77
2022/05/12 00:23:31;;;;;;;340.25;156.27;;;;;;;17.16;66.98;100008.91;335585;29;1435;-77
2022/05/12 00:23:56;;;;;;;342.95;156.82;;;;;;;17.16;66.76;100015.06;339592;29;1355;-77
2022/05/12 00:24:07;;;;;;;342.05;153.45;;;;;;;17.15;66.74;100009.84;338873;29;925;-77
2022/05/12 00:24:17;;;;;;;341.30;153.00;;;;;;;17.12;66.52;100010.03;333162;29;1230;-77
2022/05/12 00:24:27;;;;;;;342.77;155.05;;;;;;;17.13;66.51;100009.94;339505;29;1269;-77
2022/05/12 00:24:38;;;;;;;343.10;155.40;;;;;;;17.12;66.21;100002.97;339592;29;873;-77
2022/05/12 00:24:48;;;;;;;342.55;155.32;;;;;;;17.13;66.37;100009.09;337185;29;859;-77
2022/05/12 00:24:59;;;;;;;342.37;155.93;;;;;;;17.11;66.40;100003.06;335857;29;823;-77
2022/05/12 00:25:11;;;;;;;340.30;156.87;;;;;;;17.12;66.53;100008.25;338279;29;1308;-77
2022/05/12 00:25:22;;;;;;;339.92;157.23;;;;;;;17.13;66.31;100004.66;338201;29;1380;-77
2022/05/12 00:25:33;;;;;;;342.35;159.60;;;;;;;17.15;66.36;100012.50;338245;29;1180;-77
2022/05/12 00:25:47;;;;;;;341.85;159.27;;;;;;;17.09;66.43;100010.22;341045;29;1221;-77
2022/05/12 00:25:58;;;;;;;338.90;153.68;;;;;;;17.07;66.91;100010.31;339683;29;1160;-78
2022/05/12 00:26:09;;;;;;;337.47;152.33;;;;;;;17.08;66.62;100005.88;336887;29;944;-78
2022/05/12 00:26:19;;;;;;;338.30;153.10;;;;;;;17.06;66.64;100010.41;336984;29;1230;-78
2022/05/12 00:26:32;;;;;;;341.10;158.43;;;;;;;17.07;66.61;99998.91;335667;29;1194;-78
2022/05/12 00:26:43;;;;;;;342.52;159.32;;;;;;;17.04;66.80;99999.94;335543;29;1471;-78
2022/05/12 00:26:53;;;;;;;344.27;160.32;;;;;;;17.06;66.72;100003.34;336751;29;1555;-78
2022/05/12 00:27:04;;;;;;;343.70;159.80;;;;;;;17.03;66.66;100000.88;339034;29;1241;-78
2022/05/12 00:27:14;;;;;;;342.50;157.80;;;;;;;17.03;66.82;99998.22;336937;29;1265;-78
2022/05/12 00:27:25;;;;;;;341.10;154.82;;;;;;;17.05;66.58;100003.44;337090;29;1306;-78
2022/05/12 00:27:35;;;;;;;340.97;154.77;;;;;;;17.06;66.66;100015.72;338373;29;1158;-78
2022/05/12 00:27:45;;;;;;;340.97;156.00;;;;;;;17.06;66.80;100002.47;338259;29;736;-78
2022/05/12 00:27:56;;;;;;;341.35;156.65;;;;;;;17.04;66.64;100005.22;335789;29;918;-78
2022/05/12 00:28:06;;;;;;;340.77;154.73;;;;;;;17.08;66.98;100008.53;340901;29;896;-78
2022/05/12 00:28:18;;;;;;;342.58;155.82;;;;;;;17.06;66.88;100003.34;340890;29;913;-78
2022/05/12 00:28:29;;;;;;;343.85;155.80;;;;;;;17.07;66.99;100005.03;338219;29;1439;-78
2022/05/12 00:28:39;;;;;;;342.33;157.13;;;;;;;17.05;67.03;100003.44;337074;29;1317;-78
2022/05/12 00:28:50;;;;;;;339.48;154.70;;;;;;;17.05;67.02;100006.91;336851;29;1402;-78
2022/05/12 00:29:05;;;;;;;340.03;156.23;;;;;;;17.05;67.10;100006.06;335729;29;1551;-78
2022/05/12 00:29:15;;;;;;;342.48;156.48;;;;;;;17.05;67.13;100006.91;339023;29;1235;-78
2022/05/12 00:29:26;;;;;;;344.93;157.57;;;;;;;17.05;67.30;100006.91;335588;29;1462;-78
2022/05/12 00:29:36;;;;;;;343.98;156.43;;;;;;;17.07;67.32;100009.47;334485;29;1351;-78
2022/05/12 00:29:47;;;;;;;344.07;156.77;;;;;;;17.06;67.52;100005.13;335663;29;1919;-78
2022/05/12 00:29:57;;;;;;;339.80;154.77;;;;;;;17.04;67.56;100009.66;334504;29;1250;-78
2022/05/12 00:30:09;;;;;;;340.95;155.82;;;;;;;17.08;67.54;100012.03;338391;29;962;-78
2022/05/12 00:30:19;;;;;;;342.63;156.30;;;;;;;17.09;67.35;100002.28;339545;29;1338;-78
2022/05/12 00:30:30;;;;;;;345.93;159.67;;;;;;;17.08;67.36;100011.19;337178;29;917;-78
2022/05/12 00:30:41;;;;;;;344.08;158.10;;;;;;;17.10;67.24;100009.28;336890;29;1475;-78
2022/05/12 00:30:53;;;;;;;341.77;156.88;;;;;;;17.08;67.24;100011.19;338485;29;1164;-78
2022/05/12 00:31:03;;;;;;;341.50;156.10;;;;;;;17.07;67.33;100004.19;337055;29;827;-78
2022/05/12 00:31:13;;;;;;;343.03;157.00;;;;;;;17.06;67.48;100013.91;338271;29;906;-78
2022/05/12 00:31:24;;;;;;;345.90;157.75;;;;;;;17.06;67.76;100002.47;336898;29;1542;-78
2022/05/12 00:31:36;;;;;;;345.63;158.53;;;;;;;17.04;67.57;100004.38;338443;29;1207;-78
2022/05/12 00:31:47;;;;;;;344.13;158.30;;;;;;;17.07;67.32;100009.47;337854;29;1759;-78
2022/05/12 00:31:57;;;;;;;343.10;159.48;;;;;;;17.06;67.30;100013.06;335065;29;3060;-78
2022/05/12 00:32:08;;;;;;;346.23;161.73;;;;;;;17.02;67.31;100011.53;337970;29;3483;-78
2022/05/12 00:32:18;;;;;;;348.65;162.43;;;;;;;17.01;67.46;100009.84;337956;29;1764;-78
2022/05/12 00:32:29;;;;;;;348.47;162.77;;;;;;;16.98;67.65;100010.03;337764;29;2949;-77
2022/05/12 00:32:41;;;;;;;346.75;161.13;;;;;;;16.91;67.75;100007.75;340626;28;1781;-77
2022/05/12 00:32:51;;;;;;;348.13;158.88;;;;;;;16.92;67.51;100012.09;338966;29;1739;-77
2022/05/12 00:33:02;;;;;;;349.08;157.23;;;;;;;16.91;67.48;100007.75;338202;29;1366;-77
2022/05/12 00:33:13;;;;;;;348.10;156.00;;;;;;;16.93;67.64;100007.66;338381;29;791;-77
2022/05/12 00:33:26;;;;;;;350.60;159.00;;;;;;;16.92;67.79;100012.09;336994;29;984;-77
2022/05/12 00:33:36;;;;;;;345.90;156.98;;;;;;;16.92;67.61;100012.09;338522;29;1480;-77
2022/05/12 00:33:47;;;;;;;344.17;157.17;;;;;;;16.92;67.93;100006.81;340783;29;1552;-77
2022/05/12 00:33:57;;;;;;;339.95;155.60;;;;;;;16.89;67.62;100001.75;338339;29;859;-77
2022/05/12 00:34:08;;;;;;;343.37;157.93;;;;;;;16.93;67.67;100013.81;336986;29;1190;-77
2022/05/12 00:34:19;;;;;;;340.40;155.98;;;;;;;16.92;67.93;100012.09;336962;29;1220;-77
2022/05/12 00:34:30;;;;;;;341.63;155.88;;;;;;;16.93;67.98;100013.81;337016;29;920;-77
2022/05/12 00:34:40;;;;;;;338.58;153.18;;;;;;;16.94;67.47;100010.22;335640;29;1118;-77
2022/05/12 00:34:51;;;;;;;339.30;154.93;;;;;;;16.94;67.88;100022.59;336998;29;1528;-77
2022/05/12 00:35:01;;;;;;;337.60;154.07;;;;;;;16.92;67.88;100008.59;335735;29;1309;-77
2022/05/12 00:35:12;;;;;;;339.27;155.73;;;;;;;16.92;67.84;100017.38;338333;29;1334;-77
2022/05/12 00:35:22;;;;;;;338.65;154.82;;;;;;;16.88;67.64;100013.25;339468;29;1554;-77
2022/05/12 00:35:33;;;;;;;339.30;155.67;;;;;;;16.93;67.80;100018.25;335702;29;1424;-77
2022/05/12 00:35:44;;;;;;;338.83;154.07;;;;;;;16.92;68.05;100017.38;339368;29;1339;-77
2022/05/12 00:35:55;;;;;;;339.60;153.93;;;;;;;16.93;67.98;100013.81;339608;29;846;-77
2022/05/12 00:36:06;;;;;;;339.75;152.32;;;;;;;16.92;67.75;100012.09;337112;29;1697;-77
2022/05/12 00:36:16;;;;;;;339.20;152.82;;;;;;;16.94;67.75;100020.78;337210;29;1552;-77
2022/05/12 00:36:26;;;;;;;338.63;152.37;;;;;;;16.94;67.75;100015.50;337068;29;1338;-77
2022/05/12 00:36:37;;;;;;;340.05;154.18;;;;;;;16.97;67.69;100017.13;335765;29;1214;-77
2022/05/12 00:36:47;;;;;;;339.50;152.53;;;;;;;16.92;67.69;100004.16;337676;29;1249;-77
2022/05/12 00:36:58;;;;;;;339.85;153.10;;;;;;;16.98;67.52;100016.16;338271;29;1515;-77
2022/05/12 00:37:08;;;;;;;336.90;150.70;;;;;;;17.00;67.78;100016.06;338175;29;814;-77
2022/05/12 00:37:19;;;;;;;337.88;152.18;;;;;;;17.00;67.76;100010.78;338829;29;1640;-77
2022/05/12 00:37:29;;;;;;;339.13;154.67;;;;;;;17.01;67.54;100010.69;336082;29;824;-77
2022/05/12 00:37:40;;;;;;;342.42;157.18;;;;;;;16.99;67.70;100017.88;336557;29;1429;-77
2022/05/12 00:37:50;;;;;;;342.83;157.33;;;;;;;16.98;67.95;100010.03;337107;29;915;-77
2022/05/12 00:38:01;;;;;;;343.40;155.63;;;;;;;16.98;67.97;100015.31;337733;29;1425;-77
2022/05/12 00:38:11;;;;;;;343.57;155.23;;;;;;;16.98;67.86;100017.97;338385;29;1282;-77
2022/05/12 00:38:21;;;;;;;342.42;153.57;;;;;;;16.96;67.94;100016.25;340868;29;885;-77
2022/05/12 00:38:32;;;;;;;343.57;155.50;;;;;;;16.95;67.86;100019.84;340190;29;1272;-77
2022/05/12 00:38:42;;;;;;;339.65;153.60;;;;;;;16.96;67.99;100016.25;338355;29;1330;-77
2022/05/12 00:38:53;;;;;;;338.23;153.27;;;;;;;16.95;67.92;100017.19;339484;29;1045;-77
2022/05/12 00:39:03;;;;;;;337.67;152.03;;;;;;;16.96;67.92;100021.53;340857;29;1364;-77
2022/05/12 00:39:14;;;;;;;340.77;154.80;;;;;;;16.99;67.74;100017.03;339563;29;823;-77
2022/05/12 00:39:24;;;;;;;341.35;156.20;;;;;;;17.00;67.68;100018.72;339019;29;1468;-77
2022/05/12 00:39:35;;;;;;;342.53;157.53;;;;;;;17.00;67.87;100024.88;334461;29;935;-77
2022/05/12 00:39:45;;;;;;;340.50;156.23;;;;;;;17.01;67.90;100017.78;335681;29;831;-77
2022/05/12 00:39:56;;;;;;;340.48;156.68;;;;;;;17.00;67.89;100018.72;335744;29;1354;-77
2022/05/12 00:40:08;;;;;;;339.20;155.40;;;;;;;16.96;67.97;100008.31;335997;29;1157;-77
2022/05/12 00:40:18;;;;;;;340.75;156.48;;;;;;;16.94;68.13;100015.50;341019;29;845;-77
2022/05/12 00:40:29;;;;;;;343.50;158.53;;;;;;;16.94;68.11;100014.66;340991;29;756;-77
2022/05/12 00:40:41;;;;;;;344.10;158.45;;;;;;;16.93;68.03;100015.59;336981;29;1237;-77
2022/05/12 00:40:52;;;;;;;339.92;155.75;;;;;;;16.91;68.29;100020.97;334477;29;1554;-77
2022/05/12 00:41:02;;;;;;;340.05;153.43;;;;;;;16.90;68.09;100019.28;335800;29;3988;-77
2022/05/12 00:41:12;;;;;;;341.10;156.43;;;;;;;16.91;68.29;100015.69;337602;29;3089;-77
2022/05/12 00:41:23;;;;;;;343.58;155.98;;;;;;;16.88;68.23;100015.91;339469;29;1786;-77
2022/05/12 00:41:33;;;;;;;344.50;157.70;;;;;;;16.89;68.57;100019.41;336241;29;1684;-77
2022/05/12 00:41:44;;;;;;;343.85;156.05;;;;;;;16.84;68.35;100014.38;341231;28;3349;-77
2022/05/12 00:41:54;;;;;;;344.03;156.23;;;;;;;16.82;68.38;100016.28;339170;29;1175;-77
2022/05/12 00:42:04;;;;;;;345.10;155.98;;;;;;;16.83;68.31;100012.69;338785;29;1207;-77
2022/05/12 00:42:15;;;;;;;343.47;152.13;;;;;;;16.83;68.54;100007.41;337468;29;783;-77
2022/05/12 00:42:25;;;;;;;342.23;152.07;;;;;;;16.86;68.72;100015.16;335624;29;1328;-77
2022/05/12 00:42:36;;;;;;;342.17;153.38;;;;;;;16.85;68.58;100013.44;338346;29;777;-77
2022/05/12 00:42:59;;;;;;;343.80;155.97;;;;;;;16.84;68.75;100014.38;338254;29;1198;-77
2022/05/12 00:43:32;;;;;;;340.13;153.52;;;;;;;16.85;68.77;100020.53;336293;29;933;-77
2022/05/12 00:43:50;;;;;;;340.13;153.98;;;;;;;16.82;68.68;100018.91;337018;29;882;-77
2022/05/12 00:44:05;;;;;;;340.02;153.98;;;;;;;16.80;68.61;100023.44;336918;29;1442;-77
2022/05/12 00:44:16;;;;;;;338.40;152.55;;;;;;;16.80;69.04;100023.44;334449;29;906;-77
2022/05/12 00:44:26;;;;;;;341.52;153.25;;;;;;;16.80;69.00;100026.09;337437;29;1271;-78
2022/05/12 00:44:37;;;;;;;344.33;156.17;;;;;;;16.80;69.07;100017.31;338507;29;1254;-78
2022/05/12 00:44:48;;;;;;;347.63;156.48;;;;;;;16.78;69.18;100024.47;337328;29;1246;-78
2022/05/12 00:44:58;;;;;;;346.20;155.63;;;;;;;16.72;69.43;100020.41;338307;29;1252;-78
2022/05/12 00:45:09;;;;;;;344.07;153.23;;;;;;;16.72;69.42;100015.13;342300;28;953;-78
2022/05/12 00:45:19;;;;;;;342.33;153.02;;;;;;;16.75;69.33;100022.00;338148;29;1146;-78
2022/05/12 00:45:31;;;;;;;341.70;153.00;;;;;;;16.71;69.55;100010.78;335745;29;1351;-78
2022/05/12 00:45:42;;;;;;;340.30;152.70;;;;;;;16.71;69.60;100018.69;338286;29;1318;-78
2022/05/12 00:45:52;;;;;;;341.70;153.63;;;;;;;16.71;69.49;100021.34;337559;29;1611;-78
2022/05/12 00:46:05;;;;;;;341.95;155.13;;;;;;;16.67;69.58;100011.88;336838;29;1333;-78
2022/05/12 00:46:17;;;;;;;346.23;157.55;;;;;;;16.72;69.32;100017.75;336588;29;1312;-78
2022/05/12 00:46:28;;;;;;;345.45;156.27;;;;;;;16.74;69.69;100022.94;339586;29;1368;-78
2022/05/12 00:46:40;;;;;;;342.85;154.50;;;;;;;16.75;69.59;100024.66;337152;29;899;-78
2022/05/12 00:46:52;;;;;;;342.30;154.10;;;;;;;16.75;69.53;100022.88;337326;29;1105;-78
2022/05/12 00:47:03;;;;;;;340.70;155.32;;;;;;;16.76;69.51;100016.63;337527;29;1535;-78
2022/05/12 00:47:13;;;;;;;342.50;157.23;;;;;;;16.74;69.78;100018.50;336204;29;1309;-78
2022/05/12 00:47:23;;;;;;;343.42;157.95;;;;;;;16.75;69.46;100014.94;336462;29;921;-78
2022/05/12 00:47:34;;;;;;;346.27;157.43;;;;;;;16.76;69.67;100018.44;335575;29;1218;-78
2022/05/12 00:47:44;;;;;;;343.05;155.60;;;;;;;16.75;69.41;100014.94;337312;29;1216;-78
2022/05/12 00:47:55;;;;;;;342.27;155.57;;;;;;;16.77;69.66;100015.69;337011;29;1243;-78
2022/05/12 00:48:06;;;;;;;339.52;154.75;;;;;;;16.77;69.58;100013.06;337126;29;811;-78
2022/05/12 00:48:16;;;;;;;340.30;154.57;;;;;;;16.78;69.49;100020.03;338052;29;1562;-78
2022/05/12 00:48:27;;;;;;;341.37;154.40;;;;;;;16.77;69.54;100017.47;338339;29;1020;-77
2022/05/12 00:48:37;;;;;;;341.05;154.05;;;;;;;16.77;69.75;100020.13;338364;29;947;-77
2022/05/12 00:48:48;;;;;;;340.70;155.23;;;;;;;16.75;69.33;100020.22;336873;29;1590;-77
2022/05/12 00:49:07;;;;;;;340.98;155.70;;;;;;;16.73;69.72;100016.81;338236;29;1317;-77
2022/05/12 00:49:32;;;;;;;340.35;153.07;;;;;;;16.74;69.38;100018.50;337251;29;1344;-77
2022/05/12 00:49:42;;;;;;;336.08;148.30;;;;;;;16.73;69.75;100016.81;335461;29;1978;-78
2022/05/12 00:49:53;;;;;;;335.25;147.95;;;;;;;16.72;69.32;100020.41;338875;29;1526;-78
2022/05/12 00:50:04;;;;;;;338.90;149.67;;;;;;;16.70;69.55;100016.16;338586;29;1430;-78
2022/05/12 00:50:15;;;;;;;339.95;152.57;;;;;;;16.69;69.70;100010.00;334995;29;3791;-77
2022/05/12 00:50:28;;;;;;;342.08;156.07;;;;;;;16.72;69.76;100016.91;335805;29;3414;-78
2022/05/12 00:50:40;;;;;;;342.67;158.95;;;;;;;16.71;69.73;100013.41;335944;29;1482;-78